LTFM

Istanbul Airport

Code ICAO LTFM
Code IATA IST
Nom Istanbul Airport
Emplacement Istanbul, Istanbul, TR
Élévation 325 pieds / 99.1 mètres
Latitude 41.27533300
Longitude 28.75200000
METAR LTFM 091020Z 21017KT CAVOK 13/06 Q1016 NOSIG RMK RWY17L 21016KT RWY34L 20017KT RWY16R 21014KT RWY36 21016KT RWY18 21019KT
Informations extras Afficher cartes et CFS
Afficher NOTAMS
Piste Longueur Largeur Surface Élévation